sensor_id;sensor_type;location;lat;lon;timestamp;P1;P2;P0
76101;PMS7003;64830;46.910;6.354;2024-01-16T00:01:54;14.00;12.25;9.00
76101;PMS7003;64830;46.910;6.354;2024-01-16T00:04:19;18.00;14.50;9.25
76101;PMS7003;64830;46.910;6.354;2024-01-16T00:06:45;14.25;12.00;10.00
76101;PMS7003;64830;46.910;6.354;2024-01-16T00:09:10;20.00;15.00;10.00
76101;PMS7003;64830;46.910;6.354;2024-01-16T00:11:42;16.50;15.00;10.00
76101;PMS7003;64830;46.910;6.354;2024-01-16T00:14:08;21.75;14.25;11.00
76101;PMS7003;64830;46.910;6.354;2024-01-16T00:16:34;17.50;15.00;10.50
76101;PMS7003;64830;46.910;6.354;2024-01-16T00:19:06;14.25;12.50;9.50
76101;PMS7003;64830;46.910;6.354;2024-01-16T00:21:31;17.00;14.50;9.25
76101;PMS7003;64830;46.910;6.354;2024-01-16T00:23:57;18.50;16.00;9.25
76101;PMS7003;64830;46.910;6.354;2024-01-16T00:26:23;18.50;12.00;7.00
76101;PMS7003;64830;46.910;6.354;2024-01-16T00:28:48;12.75;12.75;9.25
76101;PMS7003;64830;46.910;6.354;2024-01-16T00:31:14;18.00;15.25;10.00
76101;PMS7003;64830;46.910;6.354;2024-01-16T00:33:39;22.00;16.25;11.00
76101;PMS7003;64830;46.910;6.354;2024-01-16T00:36:05;15.50;13.00;9.00
76101;PMS7003;64830;46.910;6.354;2024-01-16T00:38:34;17.00;14.75;12.25
76101;PMS7003;64830;46.910;6.354;2024-01-16T00:41:00;15.50;14.00;7.00
76101;PMS7003;64830;46.910;6.354;2024-01-16T00:43:26;14.00;10.50;6.00
76101;PMS7003;64830;46.910;6.354;2024-01-16T00:45:52;19.25;16.75;11.00
76101;PMS7003;64830;46.910;6.354;2024-01-16T00:48:17;15.00;15.00;11.00
76101;PMS7003;64830;46.910;6.354;2024-01-16T00:50:44;9.50;8.50;7.50
76101;PMS7003;64830;46.910;6.354;2024-01-16T00:53:11;17.75;14.00;9.50
76101;PMS7003;64830;46.910;6.354;2024-01-16T00:55:36;25.75;18.00;13.75
76101;PMS7003;64830;46.910;6.354;2024-01-16T00:58:02;18.00;15.25;11.00
76101;PMS7003;64830;46.910;6.354;2024-01-16T01:00:27;15.00;15.00;10.00
76101;PMS7003;64830;46.910;6.354;2024-01-16T01:02:55;12.75;11.50;11.00
76101;PMS7003;64830;46.910;6.354;2024-01-16T01:05:21;21.00;15.25;11.50
76101;PMS7003;64830;46.910;6.354;2024-01-16T01:07:49;21.25;15.00;10.50
76101;PMS7003;64830;46.910;6.354;2024-01-16T01:10:15;17.50;17.50;12.75
76101;PMS7003;64830;46.910;6.354;2024-01-16T01:12:40;14.50;10.50;9.00
76101;PMS7003;64830;46.910;6.354;2024-01-16T01:15:06;20.00;14.50;12.00
76101;PMS7003;64830;46.910;6.354;2024-01-16T01:17:32;22.25;18.25;12.00
76101;PMS7003;64830;46.910;6.354;2024-01-16T01:19:57;13.00;13.00;10.50
76101;PMS7003;64830;46.910;6.354;2024-01-16T01:22:22;18.25;18.00;12.00
76101;PMS7003;64830;46.910;6.354;2024-01-16T01:24:48;18.00;13.00;9.00
76101;PMS7003;64830;46.910;6.354;2024-01-16T01:27:13;22.50;19.00;14.00
76101;PMS7003;64830;46.910;6.354;2024-01-16T01:29:38;18.00;12.75;7.50
76101;PMS7003;64830;46.910;6.354;2024-01-16T01:32:04;21.75;19.00;12.75
76101;PMS7003;64830;46.910;6.354;2024-01-16T01:34:29;18.50;11.25;9.50
76101;PMS7003;64830;46.910;6.354;2024-01-16T01:36:55;15.25;15.25;11.50
76101;PMS7003;64830;46.910;6.354;2024-01-16T01:39:23;22.00;18.00;13.00
76101;PMS7003;64830;46.910;6.354;2024-01-16T01:41:48;16.00;12.75;9.00
76101;PMS7003;64830;46.910;6.354;2024-01-16T01:44:14;16.25;12.25;9.00
76101;PMS7003;64830;46.910;6.354;2024-01-16T01:46:41;18.25;15.00;12.00
76101;PMS7003;64830;46.910;6.354;2024-01-16T01:49:07;18.00;14.00;11.00
76101;PMS7003;64830;46.910;6.354;2024-01-16T01:51:33;12.50;12.50;7.50
76101;PMS7003;64830;46.910;6.354;2024-01-16T01:53:59;15.50;13.25;9.50
76101;PMS7003;64830;46.910;6.354;2024-01-16T01:56:26;13.00;12.00;9.00
76101;PMS7003;64830;46.910;6.354;2024-01-16T01:58:56;18.75;15.00;12.50
76101;PMS7003;64830;46.910;6.354;2024-01-16T02:01:24;16.00;15.00;10.00
76101;PMS7003;64830;46.910;6.354;2024-01-16T02:03:52;10.00;10.00;7.00
76101;PMS7003;64830;46.910;6.354;2024-01-16T02:06:19;21.25;14.75;9.00
76101;PMS7003;64830;46.910;6.354;2024-01-16T02:08:45;12.50;9.00;6.00
76101;PMS7003;64830;46.910;6.354;2024-01-16T02:11:10;16.25;13.50;9.50
76101;PMS7003;64830;46.910;6.354;2024-01-16T02:13:36;16.00;15.00;9.25
76101;PMS7003;64830;46.910;6.354;2024-01-16T02:16:02;20.50;16.00;8.75
76101;PMS7003;64830;46.910;6.354;2024-01-16T02:18:28;17.50;15.50;12.50
76101;PMS7003;64830;46.910;6.354;2024-01-16T02:20:55;13.00;13.00;10.00
76101;PMS7003;64830;46.910;6.354;2024-01-16T02:23:26;15.25;14.75;9.75
76101;PMS7003;64830;46.910;6.354;2024-01-16T02:25:52;14.50;12.75;10.50
76101;PMS7003;64830;46.910;6.354;2024-01-16T02:28:18;14.50;13.50;9.75
76101;PMS7003;64830;46.910;6.354;2024-01-16T02:30:44;18.00;14.50;8.50
76101;PMS7003;64830;46.910;6.354;2024-01-16T02:33:09;7.50;7.50;5.50
76101;PMS7003;64830;46.910;6.354;2024-01-16T02:35:35;12.50;12.50;7.50
76101;PMS7003;64830;46.910;6.354;2024-01-16T02:38:00;14.75;12.25;8.50
76101;PMS7003;64830;46.910;6.354;2024-01-16T02:40:26;7.00;7.00;7.00
76101;PMS7003;64830;46.910;6.354;2024-01-16T02:42:51;14.00;13.00;8.50
76101;PMS7003;64830;46.910;6.354;2024-01-16T02:45:17;16.75;13.75;9.50
76101;PMS7003;64830;46.910;6.354;2024-01-16T02:47:42;12.25;9.75;7.00
76101;PMS7003;64830;46.910;6.354;2024-01-16T02:50:08;14.50;10.25;7.50
76101;PMS7003;64830;46.910;6.354;2024-01-16T02:52:36;11.50;8.50;6.75
76101;PMS7003;64830;46.910;6.354;2024-01-16T02:55:02;14.50;11.50;9.00
76101;PMS7003;64830;46.910;6.354;2024-01-16T02:57:28;12.25;9.00;6.00
76101;PMS7003;64830;46.910;6.354;2024-01-16T02:59:53;10.25;6.50;3.00
76101;PMS7003;64830;46.910;6.354;2024-01-16T03:02:18;6.75;6.00;2.50
76101;PMS7003;64830;46.910;6.354;2024-01-16T03:04:44;13.50;9.25;6.25
76101;PMS7003;64830;46.910;6.354;2024-01-16T03:07:09;13.75;10.50;6.75
76101;PMS7003;64830;46.910;6.354;2024-01-16T03:09:35;17.00;13.00;10.00
76101;PMS7003;64830;46.910;6.354;2024-01-16T03:12:01;8.50;5.00;3.00
76101;PMS7003;64830;46.910;6.354;2024-01-16T03:14:27;12.50;10.00;6.25
76101;PMS7003;64830;46.910;6.354;2024-01-16T03:16:53;11.00;10.25;6.50
76101;PMS7003;64830;46.910;6.354;2024-01-16T03:19:18;11.75;7.50;6.75
76101;PMS7003;64830;46.910;6.354;2024-01-16T03:21:44;17.50;9.25;6.25
76101;PMS7003;64830;46.910;6.354;2024-01-16T03:24:09;10.75;7.00;7.00
76101;PMS7003;64830;46.910;6.354;2024-01-16T03:26:36;6.25;6.25;4.00
76101;PMS7003;64830;46.910;6.354;2024-01-16T03:29:02;13.25;9.25;7.00
76101;PMS7003;64830;46.910;6.354;2024-01-16T03:31:28;10.50;6.50;5.00
76101;PMS7003;64830;46.910;6.354;2024-01-16T03:33:53;10.25;6.50;3.25
76101;PMS7003;64830;46.910;6.354;2024-01-16T03:36:18;11.25;9.00;6.25
76101;PMS7003;64830;46.910;6.354;2024-01-16T03:38:44;10.50;9.00;6.00
76101;PMS7003;64830;46.910;6.354;2024-01-16T03:41:12;11.50;9.00;6.00
76101;PMS7003;64830;46.910;6.354;2024-01-16T03:43:38;8.50;7.50;4.00
76101;PMS7003;64830;46.910;6.354;2024-01-16T03:46:05;10.50;7.00;3.75
76101;PMS7003;64830;46.910;6.354;2024-01-16T03:48:30;9.00;7.00;6.00
76101;PMS7003;64830;46.910;6.354;2024-01-16T03:50:56;8.50;8.50;7.00
76101;PMS7003;64830;46.910;6.354;2024-01-16T03:53:21;9.00;6.00;4.50
76101;PMS7003;64830;46.910;6.354;2024-01-16T03:55:50;9.25;6.75;4.50
76101;PMS7003;64830;46.910;6.354;2024-01-16T03:58:16;1.00;0.50;0.00
76101;PMS7003;64830;46.910;6.354;2024-01-16T04:00:42;11.50;7.00;6.00
76101;PMS7003;64830;46.910;6.354;2024-01-16T04:03:08;11.00;9.25;6.25
76101;PMS7003;64830;46.910;6.354;2024-01-16T04:05:34;12.75;9.75;6.75
76101;PMS7003;64830;46.910;6.354;2024-01-16T04:07:59;9.50;6.50;4.00
76101;PMS7003;64830;46.910;6.354;2024-01-16T04:10:25;8.75;7.00;5.00
76101;PMS7003;64830;46.910;6.354;2024-01-16T04:12:50;10.00;8.00;6.25
76101;PMS7003;64830;46.910;6.354;2024-01-16T04:15:16;10.25;6.50;6.00
76101;PMS7003;64830;46.910;6.354;2024-01-16T04:17:41;6.25;5.50;3.00
76101;PMS7003;64830;46.910;6.354;2024-01-16T04:20:07;6.50;5.50;4.00
76101;PMS7003;64830;46.910;6.354;2024-01-16T04:22:34;7.00;6.75;4.00
76101;PMS7003;64830;46.910;6.354;2024-01-16T04:25:00;13.50;9.25;6.50
76101;PMS7003;64830;46.910;6.354;2024-01-16T04:27:25;11.50;9.00;5.00
76101;PMS7003;64830;46.910;6.354;2024-01-16T04:29:51;3.25;1.00;0.50
76101;PMS7003;64830;46.910;6.354;2024-01-16T04:32:16;10.75;7.00;6.00
76101;PMS7003;64830;46.910;6.354;2024-01-16T04:34:42;6.00;5.00;2.50
76101;PMS7003;64830;46.910;6.354;2024-01-16T04:37:07;9.25;6.25;4.00
76101;PMS7003;64830;46.910;6.354;2024-01-16T04:39:33;5.50;5.50;3.75
76101;PMS7003;64830;46.910;6.354;2024-01-16T04:41:58;9.25;6.00;4.00
76101;PMS7003;64830;46.910;6.354;2024-01-16T04:44:24;10.00;6.75;6.00
76101;PMS7003;64830;46.910;6.354;2024-01-16T04:46:49;6.25;5.75;5.50
76101;PMS7003;64830;46.910;6.354;2024-01-16T04:49:14;10.00;9.00;7.00
76101;PMS7003;64830;46.910;6.354;2024-01-16T04:51:40;6.75;5.50;3.75
76101;PMS7003;64830;46.910;6.354;2024-01-16T04:54:05;6.25;6.00;4.50
76101;PMS7003;64830;46.910;6.354;2024-01-16T04:56:31;10.00;6.00;4.00
76101;PMS7003;64830;46.910;6.354;2024-01-16T04:58:56;6.00;4.50;4.00
76101;PMS7003;64830;46.910;6.354;2024-01-16T05:01:22;11.50;6.25;4.00
76101;PMS7003;64830;46.910;6.354;2024-01-16T05:03:47;5.50;5.00;4.00
76101;PMS7003;64830;46.910;6.354;2024-01-16T05:06:13;5.00;3.00;3.00
76101;PMS7003;64830;46.910;6.354;2024-01-16T05:08:42;9.00;7.00;4.50
76101;PMS7003;64830;46.910;6.354;2024-01-16T05:11:08;8.75;7.25;5.00
76101;PMS7003;64830;46.910;6.354;2024-01-16T05:13:33;8.50;8.00;5.50
76101;PMS7003;64830;46.910;6.354;2024-01-16T05:15:59;5.50;5.50;3.50
76101;PMS7003;64830;46.910;6.354;2024-01-16T05:18:24;3.00;3.00;1.50
76101;PMS7003;64830;46.910;6.354;2024-01-16T05:20:50;7.00;6.50;4.00
76101;PMS7003;64830;46.910;6.354;2024-01-16T05:23:15;8.50;5.50;3.00
76101;PMS7003;64830;46.910;6.354;2024-01-16T05:25:41;8.50;8.50;6.00
76101;PMS7003;64830;46.910;6.354;2024-01-16T05:28:06;8.00;3.25;3.00
76101;PMS7003;64830;46.910;6.354;2024-01-16T05:30:32;9.25;4.50;3.00
76101;PMS7003;64830;46.910;6.354;2024-01-16T05:32:58;4.00;4.00;3.00
76101;PMS7003;64830;46.910;6.354;2024-01-16T05:35:26;10.00;8.50;6.75
76101;PMS7003;64830;46.910;6.354;2024-01-16T05:37:53;9.50;9.00;6.75
76101;PMS7003;64830;46.910;6.354;2024-01-16T05:40:19;9.00;8.00;5.00
76101;PMS7003;64830;46.910;6.354;2024-01-16T05:42:44;7.00;6.75;5.50
76101;PMS7003;64830;46.910;6.354;2024-01-16T05:45:10;5.75;5.75;3.00
76101;PMS7003;64830;46.910;6.354;2024-01-16T05:47:36;9.50;8.75;6.00
76101;PMS7003;64830;46.910;6.354;2024-01-16T05:50:01;6.00;6.00;4.00
76101;PMS7003;64830;46.910;6.354;2024-01-16T05:52:27;6.50;6.50;5.50
76101;PMS7003;64830;46.910;6.354;2024-01-16T05:54:52;12.25;8.00;6.00
76101;PMS7003;64830;46.910;6.354;2024-01-16T05:57:17;9.50;7.50;6.00
76101;PMS7003;64830;46.910;6.354;2024-01-16T05:59:43;8.75;7.75;6.00
76101;PMS7003;64830;46.910;6.354;2024-01-16T06:02:09;13.50;9.25;6.25
76101;PMS7003;64830;46.910;6.354;2024-01-16T06:04:35;7.50;6.25;5.00
76101;PMS7003;64830;46.910;6.354;2024-01-16T06:07:01;9.00;6.75;3.50
76101;PMS7003;64830;46.910;6.354;2024-01-16T06:09:27;15.25;13.50;11.00
76101;PMS7003;64830;46.910;6.354;2024-01-16T06:11:52;6.75;5.00;1.00
76101;PMS7003;64830;46.910;6.354;2024-01-16T06:14:18;15.25;11.00;8.00
76101;PMS7003;64830;46.910;6.354;2024-01-16T06:16:46;8.50;7.00;6.00
76101;PMS7003;64830;46.910;6.354;2024-01-16T06:19:13;9.00;6.00;3.75
76101;PMS7003;64830;46.910;6.354;2024-01-16T06:21:38;8.50;8.50;6.75
76101;PMS7003;64830;46.910;6.354;2024-01-16T06:24:04;8.00;7.25;6.25
76101;PMS7003;64830;46.910;6.354;2024-01-16T06:26:30;6.75;6.75;5.00
76101;PMS7003;64830;46.910;6.354;2024-01-16T06:28:56;9.00;9.00;6.00
76101;PMS7003;64830;46.910;6.354;2024-01-16T06:31:22;9.75;8.00;6.00
76101;PMS7003;64830;46.910;6.354;2024-01-16T06:33:48;9.00;7.50;6.75
76101;PMS7003;64830;46.910;6.354;2024-01-16T06:36:14;10.00;9.00;7.00
76101;PMS7003;64830;46.910;6.354;2024-01-16T06:38:39;7.00;3.00;3.00
76101;PMS7003;64830;46.910;6.354;2024-01-16T06:41:05;18.25;11.00;7.50
76101;PMS7003;64830;46.910;6.354;2024-01-16T06:43:31;10.75;7.00;6.00
76101;PMS7003;64830;46.910;6.354;2024-01-16T06:45:56;6.25;6.00;4.00
76101;PMS7003;64830;46.910;6.354;2024-01-16T06:48:22;9.00;9.00;6.00
76101;PMS7003;64830;46.910;6.354;2024-01-16T06:50:47;7.00;6.00;4.00
76101;PMS7003;64830;46.910;6.354;2024-01-16T06:53:13;7.75;5.00;3.50
76101;PMS7003;64830;46.910;6.354;2024-01-16T06:55:38;10.00;9.75;6.00
76101;PMS7003;64830;46.910;6.354;2024-01-16T06:58:03;12.25;11.00;7.50
76101;PMS7003;64830;46.910;6.354;2024-01-16T07:00:29;7.50;7.00;4.50
76101;PMS7003;64830;46.910;6.354;2024-01-16T07:02:54;11.50;6.75;4.50
76101;PMS7003;64830;46.910;6.354;2024-01-16T07:05:20;9.00;8.00;6.25
76101;PMS7003;64830;46.910;6.354;2024-01-16T07:07:46;10.75;9.75;6.75
76101;PMS7003;64830;46.910;6.354;2024-01-16T07:10:12;14.50;9.75;6.75
76101;PMS7003;64830;46.910;6.354;2024-01-16T07:12:43;11.00;11.00;8.50
76101;PMS7003;64830;46.910;6.354;2024-01-16T07:15:09;13.00;12.50;9.25
76101;PMS7003;64830;46.910;6.354;2024-01-16T07:17:34;0.25;0.25;0.25
76101;PMS7003;64830;46.910;6.354;2024-01-16T07:20:00;12.00;12.00;7.00
76101;PMS7003;64830;46.910;6.354;2024-01-16T07:22:25;9.25;9.00;7.00
76101;PMS7003;64830;46.910;6.354;2024-01-16T07:24:52;11.50;9.75;6.00
76101;PMS7003;64830;46.910;6.354;2024-01-16T07:27:17;11.50;9.00;7.00
76101;PMS7003;64830;46.910;6.354;2024-01-16T07:29:43;16.00;11.50;7.00
76101;PMS7003;64830;46.910;6.354;2024-01-16T07:32:08;14.00;12.00;9.00
76101;PMS7003;64830;46.910;6.354;2024-01-16T07:34:35;9.75;8.50;5.50
76101;PMS7003;64830;46.910;6.354;2024-01-16T07:37:01;15.50;10.50;6.25
76101;PMS7003;64830;46.910;6.354;2024-01-16T07:39:27;15.25;12.00;8.00
76101;PMS7003;64830;46.910;6.354;2024-01-16T07:41:52;9.50;7.50;6.75
76101;PMS7003;64830;46.910;6.354;2024-01-16T07:44:18;10.00;9.50;7.00
76101;PMS7003;64830;46.910;6.354;2024-01-16T07:46:43;10.00;9.00;6.00
76101;PMS7003;64830;46.910;6.354;2024-01-16T07:49:09;13.00;10.00;7.50
76101;PMS7003;64830;46.910;6.354;2024-01-16T07:51:34;10.00;7.50;6.25
76101;PMS7003;64830;46.910;6.354;2024-01-16T07:54:07;9.75;9.00;7.00
76101;PMS7003;64830;46.910;6.354;2024-01-16T07:56:33;5.75;5.75;5.00
76101;PMS7003;64830;46.910;6.354;2024-01-16T07:59:00;10.00;9.25;7.50
76101;PMS7003;64830;46.910;6.354;2024-01-16T08:01:26;9.25;9.00;6.50
76101;PMS7003;64830;46.910;6.354;2024-01-16T08:03:55;10.25;8.75;7.50
76101;PMS7003;64830;46.910;6.354;2024-01-16T08:06:21;11.50;10.25;8.00
76101;PMS7003;64830;46.910;6.354;2024-01-16T08:08:48;15.50;13.50;9.25
76101;PMS7003;64830;46.910;6.354;2024-01-16T08:11:14;13.75;11.25;8.50
76101;PMS7003;64830;46.910;6.354;2024-01-16T08:13:40;9.25;6.75;5.50
76101;PMS7003;64830;46.910;6.354;2024-01-16T08:16:06;18.25;15.00;10.00
76101;PMS7003;64830;46.910;6.354;2024-01-16T08:18:32;12.00;9.75;6.00
76101;PMS7003;64830;46.910;6.354;2024-01-16T08:20:57;16.25;13.25;8.50
76101;PMS7003;64830;46.910;6.354;2024-01-16T08:23:23;17.00;14.75;10.50
76101;PMS7003;64830;46.910;6.354;2024-01-16T08:25:48;10.50;10.25;8.00
76101;PMS7003;64830;46.910;6.354;2024-01-16T08:28:14;15.50;14.50;10.00
76101;PMS7003;64830;46.910;6.354;2024-01-16T08:30:40;6.00;5.00;4.00
76101;PMS7003;64830;46.910;6.354;2024-01-16T08:33:05;15.75;12.00;9.00
76101;PMS7003;64830;46.910;6.354;2024-01-16T08:35:32;11.50;10.50;9.00
76101;PMS7003;64830;46.910;6.354;2024-01-16T08:37:58;10.50;10.00;7.00
76101;PMS7003;64830;46.910;6.354;2024-01-16T08:40:24;11.00;8.50;6.00
76101;PMS7003;64830;46.910;6.354;2024-01-16T08:42:49;9.50;7.50;6.50
76101;PMS7003;64830;46.910;6.354;2024-01-16T08:45:19;9.50;7.00;6.00
76101;PMS7003;64830;46.910;6.354;2024-01-16T08:47:45;9.00;7.00;6.00
76101;PMS7003;64830;46.910;6.354;2024-01-16T08:50:11;13.50;11.25;7.75
76101;PMS7003;64830;46.910;6.354;2024-01-16T08:52:36;6.00;5.50;3.00
76101;PMS7003;64830;46.910;6.354;2024-01-16T08:55:02;13.25;9.75;7.50
76101;PMS7003;64830;46.910;6.354;2024-01-16T08:57:28;12.50;12.00;8.00
76101;PMS7003;64830;46.910;6.354;2024-01-16T08:59:54;10.00;10.00;9.25
76101;PMS7003;64830;46.910;6.354;2024-01-16T09:02:20;12.00;10.50;6.00
76101;PMS7003;64830;46.910;6.354;2024-01-16T09:04:46;8.00;7.00;4.00
76101;PMS7003;64830;46.910;6.354;2024-01-16T09:07:12;13.25;9.50;7.00
76101;PMS7003;64830;46.910;6.354;2024-01-16T09:09:40;12.25;10.00;8.50
76101;PMS7003;64830;46.910;6.354;2024-01-16T09:12:07;9.75;9.00;6.75
76101;PMS7003;64830;46.910;6.354;2024-01-16T09:14:33;14.50;13.50;9.50
76101;PMS7003;64830;46.910;6.354;2024-01-16T09:16:58;9.00;9.00;6.75
76101;PMS7003;64830;46.910;6.354;2024-01-16T09:19:24;11.50;9.75;9.00
76101;PMS7003;64830;46.910;6.354;2024-01-16T09:21:49;15.00;15.00;9.25
76101;PMS7003;64830;46.910;6.354;2024-01-16T09:24:15;10.00;9.00;7.50
76101;PMS7003;64830;46.910;6.354;2024-01-16T09:26:40;18.75;15.75;12.00
76101;PMS7003;64830;46.910;6.354;2024-01-16T09:29:06;12.75;12.75;9.50
76101;PMS7003;64830;46.910;6.354;2024-01-16T09:31:33;13.00;12.00;9.00
76101;PMS7003;64830;46.910;6.354;2024-01-16T09:34:00;17.00;15.25;9.75
76101;PMS7003;64830;46.910;6.354;2024-01-16T09:36:26;23.75;19.25;12.25
76101;PMS7003;64830;46.910;6.354;2024-01-16T09:38:51;16.00;14.00;10.00
76101;PMS7003;64830;46.910;6.354;2024-01-16T09:41:17;18.50;18.25;12.00
76101;PMS7003;64830;46.910;6.354;2024-01-16T09:43:42;24.25;18.25;13.50
76101;PMS7003;64830;46.910;6.354;2024-01-16T09:46:09;26.75;19.50;15.75
76101;PMS7003;64830;46.910;6.354;2024-01-16T09:48:36;28.75;23.25;16.00
76101;PMS7003;64830;46.910;6.354;2024-01-16T09:51:02;24.75;24.50;17.75
76101;PMS7003;64830;46.910;6.354;2024-01-16T09:53:28;23.00;23.00;18.25
76101;PMS7003;64830;46.910;6.354;2024-01-16T09:55:54;23.25;21.75;13.75
76101;PMS7003;64830;46.910;6.354;2024-01-16T09:58:26;20.50;18.25;9.25
76101;PMS7003;64830;46.910;6.354;2024-01-16T10:00:53;22.00;22.00;18.00
76101;PMS7003;64830;46.910;6.354;2024-01-16T10:03:19;22.00;21.00;15.25
76101;PMS7003;64830;46.910;6.354;2024-01-16T10:05:46;21.75;14.25;11.00
76101;PMS7003;64830;46.910;6.354;2024-01-16T10:08:13;24.25;21.50;15.00
76101;PMS7003;64830;46.910;6.354;2024-01-16T10:10:38;18.50;17.25;11.50
76101;PMS7003;64830;46.910;6.354;2024-01-16T10:13:04;19.25;18.00;13.00
76101;PMS7003;64830;46.910;6.354;2024-01-16T10:15:31;18.50;17.25;13.00
76101;PMS7003;64830;46.910;6.354;2024-01-16T10:17:57;23.75;18.50;12.50
76101;PMS7003;64830;46.910;6.354;2024-01-16T10:20:33;18.75;16.00;10.50
76101;PMS7003;64830;46.910;6.354;2024-01-16T10:23:00;14.50;14.50;11.00
76101;PMS7003;64830;46.910;6.354;2024-01-16T10:25:28;22.00;19.50;13.00
76101;PMS7003;64830;46.910;6.354;2024-01-16T10:28:04;20.00;18.00;12.00
76101;PMS7003;64830;46.910;6.354;2024-01-16T10:30:30;21.50;19.25;14.00
76101;PMS7003;64830;46.910;6.354;2024-01-16T10:33:00;22.00;18.75;13.00
76101;PMS7003;64830;46.910;6.354;2024-01-16T10:35:38;19.00;19.00;15.00
76101;PMS7003;64830;46.910;6.354;2024-01-16T10:38:03;22.50;21.50;15.25
76101;PMS7003;64830;46.910;6.354;2024-01-16T10:40:28;21.25;15.75;12.00
76101;PMS7003;64830;46.910;6.354;2024-01-16T10:42:59;9.50;7.00;7.00
76101;PMS7003;64830;46.910;6.354;2024-01-16T10:45:26;16.75;11.00;9.75
76101;PMS7003;64830;46.910;6.354;2024-01-16T10:48:05;19.50;15.50;12.00
76101;PMS7003;64830;46.910;6.354;2024-01-16T10:50:31;26.75;20.75;13.50
76101;PMS7003;64830;46.910;6.354;2024-01-16T10:52:59;21.00;20.50;16.00
76101;PMS7003;64830;46.910;6.354;2024-01-16T10:55:27;26.50;19.50;12.25
76101;PMS7003;64830;46.910;6.354;2024-01-16T10:57:54;24.75;21.25;16.50
76101;PMS7003;64830;46.910;6.354;2024-01-16T11:00:21;32.00;21.50;16.50
76101;PMS7003;64830;46.910;6.354;2024-01-16T11:05:13;32.25;30.25;21.50
76101;PMS7003;64830;46.910;6.354;2024-01-16T11:07:41;21.25;17.50;17.00
76101;PMS7003;64830;46.910;6.354;2024-01-16T11:10:09;30.00;22.50;16.50
76101;PMS7003;64830;46.910;6.354;2024-01-16T11:12:37;26.75;22.00;16.25
76101;PMS7003;64830;46.910;6.354;2024-01-16T11:15:04;26.25;22.50;16.50
76101;PMS7003;64830;46.910;6.354;2024-01-16T11:17:33;18.50;17.25;12.50
76101;PMS7003;64830;46.910;6.354;2024-01-16T11:20:01;21.25;17.50;14.50
76101;PMS7003;64830;46.910;6.354;2024-01-16T11:22:31;23.75;19.75;15.50
76101;PMS7003;64830;46.910;6.354;2024-01-16T11:25:06;23.00;21.50;15.00
76101;PMS7003;64830;46.910;6.354;2024-01-16T11:27:40;21.50;18.25;13.00
76101;PMS7003;64830;46.910;6.354;2024-01-16T11:30:07;20.25;19.75;16.00
76101;PMS7003;64830;46.910;6.354;2024-01-16T11:32:35;20.75;19.00;13.25
76101;PMS7003;64830;46.910;6.354;2024-01-16T11:35:02;19.25;16.00;13.25
76101;PMS7003;64830;46.910;6.354;2024-01-16T11:37:31;19.50;18.00;10.50
76101;PMS7003;64830;46.910;6.354;2024-01-16T11:42:42;17.50;16.25;11.00
76101;PMS7003;64830;46.910;6.354;2024-01-16T11:45:08;16.50;14.75;9.00
76101;PMS7003;64830;46.910;6.354;2024-01-16T11:48:09;16.50;14.50;12.00
76101;PMS7003;64830;46.910;6.354;2024-01-16T11:50:38;18.75;16.75;12.00
76101;PMS7003;64830;46.910;6.354;2024-01-16T11:53:04;17.00;16.00;11.00
76101;PMS7003;64830;46.910;6.354;2024-01-16T12:00:30;17.25;14.00;8.00
76101;PMS7003;64830;46.910;6.354;2024-01-16T12:02:57;25.25;17.50;11.00
76101;PMS7003;64830;46.910;6.354;2024-01-16T12:05:28;17.75;16.50;13.25
76101;PMS7003;64830;46.910;6.354;2024-01-16T12:07:53;16.25;13.50;10.25
76101;PMS7003;64830;46.910;6.354;2024-01-16T12:10:20;15.50;14.50;11.00
76101;PMS7003;64830;46.910;6.354;2024-01-16T12:12:47;17.00;14.00;11.00
76101;PMS7003;64830;46.910;6.354;2024-01-16T12:15:22;16.50;16.50;13.00
76101;PMS7003;64830;46.910;6.354;2024-01-16T12:17:54;15.50;15.50;10.00
76101;PMS7003;64830;46.910;6.354;2024-01-16T12:20:21;17.75;17.50;12.75
76101;PMS7003;64830;46.910;6.354;2024-01-16T12:22:53;8.50;7.00;4.50
76101;PMS7003;64830;46.910;6.354;2024-01-16T12:25:22;15.50;14.75;11.75
76101;PMS7003;64830;46.910;6.354;2024-01-16T12:27:57;16.50;14.00;11.00
76101;PMS7003;64830;46.910;6.354;2024-01-16T12:30:24;15.00;10.00;9.50
76101;PMS7003;64830;46.910;6.354;2024-01-16T12:32:51;21.25;17.75;12.00
76101;PMS7003;64830;46.910;6.354;2024-01-16T12:35:21;16.25;12.50;9.50
76101;PMS7003;64830;46.910;6.354;2024-01-16T12:38:02;18.50;17.00;14.00
76101;PMS7003;64830;46.910;6.354;2024-01-16T12:40:30;11.00;11.00;9.25
76101;PMS7003;64830;46.910;6.354;2024-01-16T12:42:56;18.00;16.75;12.00
76101;PMS7003;64830;46.910;6.354;2024-01-16T12:45:23;36.75;33.00;24.25
76101;PMS7003;64830;46.910;6.354;2024-01-16T12:47:53;36.50;35.75;23.75
76101;PMS7003;64830;46.910;6.354;2024-01-16T12:50:19;37.50;33.25;23.50
76101;PMS7003;64830;46.910;6.354;2024-01-16T12:53:00;26.25;22.75;14.00
76101;PMS7003;64830;46.910;6.354;2024-01-16T12:55:30;31.75;27.75;21.50
76101;PMS7003;64830;46.910;6.354;2024-01-16T13:00:47;23.75;20.75;16.75
76101;PMS7003;64830;46.910;6.354;2024-01-16T13:03:14;20.00;18.00;12.50
76101;PMS7003;64830;46.910;6.354;2024-01-16T13:05:42;33.75;28.00;21.00
76101;PMS7003;64830;46.910;6.354;2024-01-16T13:08:07;18.50;15.25;12.25
76101;PMS7003;64830;46.910;6.354;2024-01-16T13:10:33;27.50;23.00;14.50
76101;PMS7003;64830;46.910;6.354;2024-01-16T13:13:16;29.75;27.00;21.00
76101;PMS7003;64830;46.910;6.354;2024-01-16T13:15:43;26.50;24.00;18.25
76101;PMS7003;64830;46.910;6.354;2024-01-16T13:18:26;18.00;18.00;12.75
76101;PMS7003;64830;46.910;6.354;2024-01-16T13:20:53;16.50;15.50;10.25
76101;PMS7003;64830;46.910;6.354;2024-01-16T13:23:20;14.50;12.25;8.25
76101;PMS7003;64830;46.910;6.354;2024-01-16T13:25:47;14.50;13.50;11.00
76101;PMS7003;64830;46.910;6.354;2024-01-16T13:28:16;18.00;16.75;11.75
76101;PMS7003;64830;46.910;6.354;2024-01-16T13:30:43;17.25;15.00;11.25
76101;PMS7003;64830;46.910;6.354;2024-01-16T13:33:09;16.50;15.00;13.25
76101;PMS7003;64830;46.910;6.354;2024-01-16T13:35:37;18.50;18.25;12.75
76101;PMS7003;64830;46.910;6.354;2024-01-16T13:38:08;16.75;13.00;10.25
76101;PMS7003;64830;46.910;6.354;2024-01-16T13:40:37;12.50;10.25;8.75
76101;PMS7003;64830;46.910;6.354;2024-01-16T13:43:03;13.50;13.50;10.75
76101;PMS7003;64830;46.910;6.354;2024-01-16T13:45:29;16.75;12.50;11.00
76101;PMS7003;64830;46.910;6.354;2024-01-16T13:47:55;16.00;16.00;11.50
76101;PMS7003;64830;46.910;6.354;2024-01-16T13:50:21;10.50;8.25;6.50
76101;PMS7003;64830;46.910;6.354;2024-01-16T13:52:46;13.00;12.50;10.25
76101;PMS7003;64830;46.910;6.354;2024-01-16T13:55:12;12.50;12.25;10.00
76101;PMS7003;64830;46.910;6.354;2024-01-16T13:57:38;14.00;14.00;10.25
76101;PMS7003;64830;46.910;6.354;2024-01-16T14:00:04;9.50;9.25;7.00
76101;PMS7003;64830;46.910;6.354;2024-01-16T14:02:47;8.00;6.75;4.75
76101;PMS7003;64830;46.910;6.354;2024-01-16T14:05:13;9.25;8.00;7.00
76101;PMS7003;64830;46.910;6.354;2024-01-16T14:07:41;6.00;6.00;5.00
76101;PMS7003;64830;46.910;6.354;2024-01-16T14:10:09;7.50;5.75;4.25
76101;PMS7003;64830;46.910;6.354;2024-01-16T14:12:37;8.00;8.00;7.00